Time;durP1;ratioP1;P1;durP2;ratioP2;P2;SDS_P1;SDS_P2;PMS_P1;PMS_P2;Temp;Humidity;BMP_temperature;BMP_pressure;BME280_temperature;BME280_humidity;BME280_pressure;Samples;Min_cycle;Max_cycle;Signal;HPM_P1;HPM_P2
2021/04/26 02:46:38;;;;;;;22.55;21.27;;;8.80;61.00;;;;;;5744808;23;90175;-84
2021/04/26 02:49:05;;;;;;;23.45;22.15;;;8.80;61.20;;;;;;4965774;28;86908;-84
2021/04/26 02:51:34;;;;;;;30.63;29.13;;;8.70;61.30;;;;;;4966938;28;86949;-84
2021/04/26 02:54:01;;;;;;;29.48;27.45;;;8.70;61.30;;;;;;4961014;28;87338;-82
2021/04/26 02:56:28;;;;;;;30.10;28.50;;;8.70;61.50;;;;;;4952034;28;87618;-83
2021/04/26 02:58:56;;;;;;;30.98;29.25;;;8.60;61.80;;;;;;4954519;28;87056;-83
2021/04/26 03:01:22;;;;;;;27.77;26.38;;;8.60;62.10;;;;;;4964165;28;86008;-84
2021/04/26 03:03:49;;;;;;;24.08;22.83;;;8.50;62.30;;;;;;4964451;28;86991;-84
2021/04/26 03:06:16;;;;;;;22.95;21.33;;;8.50;62.40;;;;;;4964647;28;86986;-84
2021/04/26 03:08:43;;;;;;;22.50;21.20;;;8.50;62.30;;;;;;4969551;28;87988;-82
2021/04/26 03:11:12;;;;;;;18.30;17.08;;;8.40;62.70;;;;;;4969965;28;86921;-84
2021/04/26 03:13:38;;;;;;;18.00;17.02;;;8.30;61.80;;;;;;4968557;28;87428;-85
2021/04/26 03:16:05;;;;;;;16.42;15.52;;;8.30;62.40;;;;;;4957212;28;87165;-84
2021/04/26 03:18:33;;;;;;;15.88;14.77;;;8.20;62.50;;;;;;4970275;28;86569;-84
2021/04/26 03:20:59;;;;;;;16.23;15.30;;;;;;;;;;4969910;28;87074;-84
2021/04/26 03:23:27;;;;;;;14.98;13.93;;;8.20;63.00;;;;;;4968039;28;87566;-83
2021/04/26 03:25:57;;;;;;;13.73;12.80;;;8.20;63.50;;;;;;4958346;28;86370;-82
2021/04/26 03:28:23;;;;;;;12.87;11.40;;;8.20;63.70;;;;;;4966720;28;86905;-83
2021/04/26 03:30:50;;;;;;;14.82;13.73;;;8.20;65.30;;;;;;4947718;28;86918;-84
2021/04/26 03:33:16;;;;;;;12.45;11.43;;;8.20;65.70;;;;;;4962770;28;88159;-83
2021/04/26 03:35:43;;;;;;;11.35;10.50;;;8.20;65.00;;;;;;4954110;28;87266;-84
2021/04/26 03:38:12;;;;;;;12.32;11.35;;;8.30;65.40;;;;;;4946274;28;86921;-82
2021/04/26 03:40:40;;;;;;;12.00;10.95;;;8.30;65.70;;;;;;4966213;28;86924;-82
2021/04/26 03:43:06;;;;;;;11.63;10.80;;;8.30;65.90;;;;;;4968034;28;86936;-83
2021/04/26 03:45:32;;;;;;;14.07;13.18;;;;;;;;;;4966392;28;87906;-82
2021/04/26 03:47:58;;;;;;;11.10;10.27;;;8.30;66.00;;;;;;4980798;28;86926;-84
2021/04/26 03:50:25;;;;;;;11.50;10.75;;;8.30;66.50;;;;;;4969411;28;86285;-82
2021/04/26 03:52:51;;;;;;;13.45;12.57;;;8.40;66.60;;;;;;4947230;28;88906;-82
2021/04/26 03:55:19;;;;;;;13.07;12.18;;;8.50;67.40;;;;;;4951786;28;89581;-82
2021/04/26 03:57:46;;;;;;;15.45;14.45;;;8.40;67.60;;;;;;4966032;28;87884;-85
2021/04/26 04:00:13;;;;;;;16.50;15.40;;;8.40;67.60;;;;;;4963920;28;87090;-83
2021/04/26 04:02:39;;;;;;;19.20;18.08;;;;;;;;;;4936185;28;89688;-86
2021/04/26 04:05:06;;;;;;;24.05;22.75;;;9.00;67.40;;;;;;4965903;28;87157;-84
2021/04/26 04:07:33;;;;;;;31.83;30.08;;;8.40;68.40;;;;;;4968571;28;86978;-82
2021/04/26 04:09:58;;;;;;;33.03;31.20;;;8.40;68.60;;;;;;4971671;28;87003;-85
2021/04/26 04:12:24;;;;;;;39.08;37.03;;;8.40;69.50;;;;;;4990079;28;88409;-84
2021/04/26 04:14:50;;;;;;;44.63;42.35;;;;;;;;;;4988546;28;86364;-84
2021/04/26 04:17:16;;;;;;;41.58;39.60;;;;;;;;;;4981221;28;86833;-84
2021/04/26 04:19:42;;;;;;;41.28;39.28;;;;;;;;;;4967440;28;86755;-87
2021/04/26 04:22:08;;;;;;;50.70;48.33;;;8.30;68.20;;;;;;4949563;28;87968;-85
2021/04/26 04:24:35;;;;;;;41.60;39.30;;;;;;;;;;4970211;28;88097;-87
2021/04/26 04:27:00;;;;;;;56.20;53.60;;;8.20;68.40;;;;;;4970372;28;86613;-84
2021/04/26 04:29:26;;;;;;;57.85;55.35;;;8.30;68.90;;;;;;4975667;28;87217;-85
2021/04/26 04:31:52;;;;;;;65.78;62.78;;;8.30;69.20;;;;;;4981968;28;87373;-86
2021/04/26 04:34:17;;;;;;;84.15;80.22;;;8.20;69.60;;;;;;4964187;28;87058;-87
2021/04/26 04:36:43;;;;;;;87.35;83.30;;;8.10;70.40;;;;;;4969564;28;86896;-86
2021/04/26 04:39:09;;;;;;;82.82;79.07;;;8.10;70.40;;;;;;4987528;28;85769;-86
2021/04/26 04:41:34;;;;;;;84.28;80.47;;;8.10;71.10;;;;;;4983198;28;86854;-87
2021/04/26 04:44:00;;;;;;;90.03;86.07;;;8.10;70.60;;;;;;4970325;28;87029;-87
2021/04/26 04:46:29;;;;;;;85.75;81.95;;;8.00;70.30;;;;;;4967636;28;87666;-87
2021/04/26 04:48:55;;;;;;;88.75;84.93;;;8.00;69.90;;;;;;4970043;28;86942;-86
2021/04/26 04:51:21;;;;;;;112.10;106.93;;;8.00;69.70;;;;;;4952696;28;87418;-85
2021/04/26 04:53:47;;;;;;;103.40;98.90;;;8.00;70.10;;;;;;4974535;28;87108;-86
2021/04/26 04:56:14;;;;;;;97.20;92.53;;;8.10;70.30;;;;;;4966683;28;86900;-84
2021/04/26 04:58:39;;;;;;;85.57;81.50;;;8.10;70.30;;;;;;4969859;28;87018;-87
2021/04/26 05:01:05;;;;;;;44.30;42.00;;;8.20;83.50;;;;;;4975156;28;87005;-85
2021/04/26 05:03:31;;;;;;;53.22;50.42;;;8.20;70.00;;;;;;4976413;28;86875;-85
2021/04/26 05:05:57;;;;;;;29.00;27.42;;;8.80;81.20;;;;;;4978003;28;86878;-85
2021/04/26 05:08:23;;;;;;;24.10;22.50;;;;;;;;;;4978019;28;86869;-85
2021/04/26 05:10:48;;;;;;;31.98;30.17;;;8.30;69.10;;;;;;4959935;28;91016;-85
2021/04/26 05:13:14;;;;;;;24.88;23.35;;;8.40;71.20;;;;;;4980873;28;88060;-86
2021/04/26 05:15:40;;;;;;;21.45;20.25;;;8.40;71.80;;;;;;4975173;28;86818;-85
2021/04/26 05:18:07;;;;;;;16.17;15.05;;;8.40;71.50;;;;;;4994939;28;86921;-84
2021/04/26 05:20:34;;;;;;;15.23;14.20;;;8.40;69.70;;;;;;4977212;28;87112;-83
2021/04/26 05:23:00;;;;;;;11.98;11.27;;;;;;;;;;4946036;28;87940;-85
2021/04/26 05:25:26;;;;;;;11.73;10.90;;;8.40;69.60;;;;;;4964629;28;86834;-84
2021/04/26 05:27:52;;;;;;;10.88;10.07;;;8.50;70.10;;;;;;4958260;28;86324;-82
2021/04/26 05:30:18;;;;;;;11.73;10.73;;;8.60;69.80;;;;;;4967358;28;86602;-84
2021/04/26 05:32:44;;;;;;;12.15;11.15;;;8.70;69.50;;;;;;4965270;28;86895;-83
2021/04/26 05:35:10;;;;;;;12.02;11.20;;;8.80;69.70;;;;;;4968620;28;88896;-82
2021/04/26 05:37:36;;;;;;;15.23;13.93;;;;;;;;;;4971545;28;86506;-82
2021/04/26 05:40:02;;;;;;;13.63;12.57;;;8.80;66.70;;;;;;4944348;28;87214;-84
2021/04/26 05:42:28;;;;;;;12.25;11.27;;;8.80;66.90;;;;;;4964376;28;87414;-84
2021/04/26 05:44:54;;;;;;;12.32;11.43;;;8.80;67.20;;;;;;4965739;28;87348;-83
2021/04/26 05:47:19;;;;;;;15.30;14.23;;;8.60;82.00;;;;;;4964778;28;86953;-84
2021/04/26 05:49:45;;;;;;;12.65;11.63;;;8.90;67.50;;;;;;4966763;28;88529;-81
2021/04/26 05:52:11;;;;;;;13.43;12.50;;;8.90;67.60;;;;;;4973229;28;87136;-83
2021/04/26 05:54:37;;;;;;;17.92;16.52;;;;;;;;;;4964976;28;86839;-84
2021/04/26 05:57:03;;;;;;;13.90;12.80;;;8.70;66.50;;;;;;4962425;28;87034;-80
2021/04/26 05:59:29;;;;;;;13.18;12.20;;;8.70;67.20;;;;;;4964862;28;87994;-84
2021/04/26 06:01:55;;;;;;;12.77;11.88;;;8.80;67.10;;;;;;4952640;28;88051;-80
2021/04/26 06:04:21;;;;;;;13.82;12.80;;;8.80;66.80;;;;;;4960844;28;87534;-83
2021/04/26 06:06:46;;;;;;;13.68;12.68;;;8.90;67.00;;;;;;4964265;28;86942;-83
2021/04/26 06:09:12;;;;;;;11.07;10.18;;;9.00;67.00;;;;;;4955559;28;91887;-84
2021/04/26 06:11:38;;;;;;;11.80;10.80;;;9.20;66.90;;;;;;4951797;28;86906;-84
2021/04/26 06:14:03;;;;;;;12.02;10.93;;;9.40;66.90;;;;;;4977362;28;86858;-82
2021/04/26 06:16:29;;;;;;;10.23;9.23;;;9.60;66.40;;;;;;4978071;28;86385;-83
2021/04/26 06:18:55;;;;;;;11.88;10.85;;;;;;;;;;4969551;28;87752;-84
2021/04/26 06:21:21;;;;;;;10.32;9.40;;;9.80;64.00;;;;;;4964762;28;86644;-81
2021/04/26 06:23:47;;;;;;;10.20;9.32;;;10.00;64.40;;;;;;4964907;28;87789;-84
2021/04/26 06:26:13;;;;;;;9.45;8.57;;;10.10;64.60;;;;;;4965396;28;87149;-84
2021/04/26 06:28:38;;;;;;;9.70;8.50;;;10.30;63.70;;;;;;4954558;28;87029;-83
2021/04/26 06:31:04;;;;;;;13.45;12.45;;;10.30;62.60;;;;;;4973864;28;87301;-85
2021/04/26 06:33:30;;;;;;;19.40;18.17;;;10.30;62.20;;;;;;4969561;28;87638;-83
2021/04/26 06:35:55;;;;;;;20.30;18.92;;;10.40;62.80;;;;;;4968721;28;86828;-82
2021/04/26 06:38:22;;;;;;;17.58;16.33;;;10.40;61.60;;;;;;4971753;28;87291;-83
2021/04/26 06:40:48;;;;;;;15.57;14.43;;;10.60;60.30;;;;;;4965455;28;86295;-83
2021/04/26 06:43:15;;;;;;;19.25;17.85;;;10.50;60.80;;;;;;4964702;28;86973;-82
2021/04/26 06:45:41;;;;;;;19.90;18.67;;;10.60;60.50;;;;;;4967781;28;86702;-83
2021/04/26 06:48:08;;;;;;;17.48;16.30;;;10.70;61.20;;;;;;4985415;28;88532;-82
2021/04/26 06:50:34;;;;;;;14.98;13.95;;;10.80;60.50;;;;;;4981941;28;88587;-83
2021/04/26 06:53:00;;;;;;;16.63;15.32;;;10.90;60.10;;;;;;4978936;28;86968;-83
2021/04/26 06:55:26;;;;;;;25.85;24.35;;;11.00;60.30;;;;;;4972905;28;87030;-85
2021/04/26 06:57:53;;;;;;;29.17;27.50;;;11.00;59.80;;;;;;4974193;28;87273;-84
2021/04/26 07:00:21;;;;;;;28.10;26.42;;;11.50;72.20;;;;;;4973093;28;88008;-84
2021/04/26 07:02:48;;;;;;;28.60;27.20;;;11.40;59.10;;;;;;4990247;28;86786;-84
2021/04/26 07:05:14;;;;;;;24.85;23.38;;;11.50;58.20;;;;;;4977047;28;86116;-87
2021/04/26 07:07:40;;;;;;;18.67;16.98;;;11.50;57.90;;;;;;4986604;28;87325;-84
2021/04/26 07:10:06;;;;;;;18.77;17.70;;;11.50;57.90;;;;;;4974645;28;86812;-85
2021/04/26 07:12:32;;;;;;;20.98;19.48;;;11.60;58.20;;;;;;4962333;28;87925;-85
2021/04/26 07:14:59;;;;;;;24.77;23.17;;;11.60;58.00;;;;;;4965692;28;86824;-84
2021/04/26 07:17:25;;;;;;;31.50;29.88;;;11.70;58.40;;;;;;4966194;28;87372;-84
2021/04/26 07:19:51;;;;;;;36.15;34.25;;;11.70;58.20;;;;;;4948891;28;88643;-85
2021/04/26 07:22:17;;;;;;;21.65;20.45;;;;;;;;;;4966794;28;86897;-86
2021/04/26 07:24:43;;;;;;;23.55;22.25;;;;;;;;;;4971300;28;87016;-85
2021/04/26 07:27:11;;;;;;;43.08;40.80;;;11.90;57.80;;;;;;4948025;28;89753;-84
2021/04/26 07:29:37;;;;;;;44.03;41.83;;;12.10;56.80;;;;;;4956934;28;86347;-84
2021/04/26 07:32:03;;;;;;;45.15;42.85;;;12.20;56.70;;;;;;4958982;28;86823;-85
2021/04/26 07:34:29;;;;;;;31.63;29.98;;;12.30;56.30;;;;;;4972418;28;86875;-84
2021/04/26 07:36:57;;;;;;;28.35;26.65;;;12.40;55.90;;;;;;4985296;28;87912;-85
2021/04/26 07:39:23;;;;;;;18.98;17.65;;;12.50;56.30;;;;;;4966502;28;87380;-83
2021/04/26 07:41:48;;;;;;;15.13;13.82;;;12.70;55.50;;;;;;4949426;28;87047;-83
2021/04/26 07:44:14;;;;;;;14.77;13.80;;;12.90;54.40;;;;;;4965582;28;86913;-87
2021/04/26 07:46:40;;;;;;;17.13;15.75;;;;;;;;;;4946229;28;89078;-84
2021/04/26 07:49:06;;;;;;;15.90;14.90;;;13.50;53.60;;;;;;4964163;28;87845;-85
2021/04/26 07:51:32;;;;;;;25.77;24.15;;;13.90;53.30;;;;;;4945749;28;87074;-83
2021/04/26 07:53:57;;;;;;;17.92;16.52;;;14.30;51.50;;;;;;4963792;28;86191;-83
2021/04/26 07:56:23;;;;;;;20.00;18.77;;;14.90;51.00;;;;;;4965612;28;87328;-83
2021/04/26 07:58:49;;;;;;;23.60;22.00;;;15.50;50.90;;;;;;4965345;28;87047;-83
2021/04/26 08:01:15;;;;;;;19.02;17.77;;;16.50;48.40;;;;;;4967305;28;87868;-84
2021/04/26 08:03:40;;;;;;;22.02;20.73;;;17.30;45.50;;;;;;4970430;28;86954;-84
2021/04/26 08:06:13;;;;;;;40.25;38.30;;;18.10;43.60;;;;;;4968936;28;87375;-84
2021/04/26 08:08:39;;;;;;;35.28;33.33;;;19.20;42.40;;;;;;4972631;28;86819;-84
2021/04/26 08:11:05;;;;;;;31.15;29.60;;;20.10;40.60;;;;;;4971541;28;87058;-83
2021/04/26 08:13:31;;;;;;;29.40;27.50;;;;;;;;;;4992140;28;86652;-86
2021/04/26 08:15:58;;;;;;;22.48;21.05;;;21.80;38.00;;;;;;4983048;28;87301;-86
2021/04/26 08:18:24;;;;;;;17.95;16.75;;;23.40;35.80;;;;;;4986362;28;86460;-84
2021/04/26 08:20:51;;;;;;;16.48;15.45;;;24.70;40.20;;;;;;4969214;28;87201;-85
2021/04/26 08:23:25;;;;;;;17.27;16.13;;;24.50;32.80;;;;;;4956207;28;87005;-84
2021/04/26 08:25:52;;;;;;;32.25;30.42;;;24.60;33.10;;;;;;4954955;28;87963;-84
2021/04/26 08:28:23;;;;;;;23.90;22.50;;;24.10;36.20;;;;;;4968143;28;88118;-83
2021/04/26 08:30:55;;;;;;;23.83;22.35;;;24.20;32.20;;;;;;4953043;28;86896;-84
2021/04/26 08:33:21;;;;;;;18.95;17.75;;;23.80;32.90;;;;;;4935311;28;86706;-84
2021/04/26 08:35:47;;;;;;;18.52;17.10;;;24.10;33.50;;;;;;4971127;28;87267;-85
2021/04/26 08:38:12;;;;;;;22.50;20.95;;;24.40;32.80;;;;;;4966040;28;89542;-82
2021/04/26 08:40:39;;;;;;;27.95;26.45;;;25.10;32.60;;;;;;4967885;28;87158;-84
2021/04/26 08:43:06;;;;;;;63.35;60.13;;;25.70;31.60;;;;;;4964262;28;86364;-84
2021/04/26 08:45:33;;;;;;;112.82;107.93;;;26.10;31.40;;;;;;4968799;28;87144;-85
2021/04/26 08:48:01;;;;;;;21.40;20.20;;;26.00;30.10;;;;;;4970234;28;88099;-86
2021/04/26 08:50:27;;;;;;;50.42;47.88;;;26.00;30.50;;;;;;4968772;28;87794;-85
2021/04/26 08:52:54;;;;;;;203.55;195.07;;;27.20;29.50;;;;;;4970567;28;86576;-86
2021/04/26 08:55:20;;;;;;;88.95;85.30;;;27.90;28.60;;;;;;4968512;28;86851;-85
2021/04/26 08:57:47;;;;;;;151.50;145.15;;;28.90;28.80;;;;;;4969490;28;88160;-85
2021/04/26 09:00:14;;;;;;;135.05;129.50;;;29.30;27.60;;;;;;4968755;28;86581;-86
2021/04/26 09:02:43;;;;;;;90.75;86.80;;;30.50;27.80;;;;;;4969850;28;86725;-86
2021/04/26 09:05:19;;;;;;;126.18;120.25;;;31.40;26.70;;;;;;4975312;28;88114;-85
2021/04/26 09:07:49;;;;;;;112.18;107.35;;;32.30;26.60;;;;;;4978571;28;86289;-86
2021/04/26 09:10:15;;;;;;;77.72;74.30;;;32.80;25.90;;;;;;4969403;28;86886;-86
2021/04/26 09:12:41;;;;;;;130.77;125.00;;;33.80;25.80;;;;;;4969784;28;86762;-86
2021/04/26 09:15:06;;;;;;;64.18;61.22;;;34.60;25.10;;;;;;4951915;28;90140;-87
2021/04/26 09:17:41;;;;;;;56.08;53.50;;;34.70;24.40;;;;;;4967462;28;87764;-85
2021/04/26 09:20:19;;;;;;;56.00;53.45;;;34.70;24.50;;;;;;4965257;28;86637;-85
2021/04/26 09:22:54;;;;;;;101.47;97.22;;;35.70;24.10;;;;;;4969110;28;86994;-87
2021/04/26 09:25:23;;;;;;;52.60;50.22;;;35.60;24.30;;;;;;4967366;28;87542;-84
2021/04/26 09:28:00;;;;;;;39.28;37.42;;;36.70;22.80;;;;;;4971144;28;86930;-86
2021/04/26 09:30:52;;;;;;;45.75;43.63;;;37.10;22.90;;;;;;4978323;28;86992;-87
2021/04/26 09:33:34;;;;;;;65.25;62.25;;;36.90;22.90;;;;;;4958784;28;86322;-85
2021/04/26 09:36:03;;;;;;;82.07;78.43;;;37.00;22.80;;;;;;4954974;28;90479;-86
2021/04/26 09:38:31;;;;;;;85.70;82.15;;;37.10;23.20;;;;;;4961664;28;86910;-87
2021/04/26 09:41:29;;;;;;;109.65;104.95;;;36.90;23.60;;;;;;4968668;28;87824;-86
2021/04/26 09:44:01;;;;;;;132.90;127.13;;;36.60;22.80;;;;;;4941867;28;86950;-87
2021/04/26 09:46:47;;;;;;;142.45;136.32;;;36.00;23.60;;;;;;4970332;28;86754;-86
2021/04/26 09:49:13;;;;;;;96.47;92.22;;;36.40;23.70;;;;;;4974240;28;86873;-87
2021/04/26 09:51:43;;;;;;;72.93;69.63;;;36.30;23.50;;;;;;4972326;28;86956;-85
2021/04/26 09:54:09;;;;;;;28.38;26.95;;;35.80;23.90;;;;;;4977845;28;87326;-87
2021/04/26 09:56:45;;;;;;;39.53;37.50;;;35.10;23.80;;;;;;4955972;28;89390;-86
2021/04/26 09:59:13;;;;;;;34.10;32.35;;;35.00;23.80;;;;;;4964515;28;87138;-86
2021/04/26 10:01:40;;;;;;;34.92;33.10;;;35.10;24.30;;;;;;4968427;28;87647;-87
2021/04/26 10:04:08;;;;;;;24.45;23.05;;;35.50;23.70;;;;;;4959546;28;87171;-85
2021/04/26 10:06:34;;;;;;;40.13;38.20;;;35.80;24.30;;;;;;4971594;28;88198;-84
2021/04/26 10:09:07;;;;;;;39.67;37.83;;;36.40;23.90;;;;;;4968584;28;88015;-84
2021/04/26 10:11:34;;;;;;;80.65;76.93;;;37.00;23.20;;;;;;4968728;28;86706;-86
2021/04/26 10:14:07;;;;;;;112.72;107.70;;;36.80;23.00;;;;;;4964411;28;86792;-84
2021/04/26 10:16:47;;;;;;;72.30;68.93;;;36.40;23.40;;;;;;4965433;28;87107;-85
2021/04/26 10:19:14;;;;;;;64.05;61.17;;;37.10;23.00;;;;;;4966944;28;87054;-86
2021/04/26 10:21:42;;;;;;;67.47;64.47;;;37.10;23.40;;;;;;4965284;28;86994;-86
2021/04/26 10:24:19;;;;;;;45.40;43.28;;;37.50;22.90;;;;;;4964860;28;86209;-86
2021/04/26 10:26:45;;;;;;;40.85;38.85;;;36.90;23.00;;;;;;4962848;28;87790;-88
2021/04/26 10:29:28;;;;;;;77.30;74.00;;;35.80;23.50;;;;;;4966421;28;88249;-86
2021/04/26 10:32:04;;;;;;;78.40;74.95;;;36.00;24.10;;;;;;4961978;28;88047;-86
2021/04/26 10:34:35;;;;;;;88.80;84.70;;;36.50;23.60;;;;;;4968217;28;86851;-84
2021/04/26 10:37:18;;;;;;;54.10;51.63;;;37.30;24.20;;;;;;4943571;28;88821;-84
2021/04/26 10:40:08;;;;;;;42.00;40.10;;;38.50;23.30;;;;;;4965292;28;87053;-85
2021/04/26 10:42:42;;;;;;;37.13;35.35;;;38.30;22.80;;;;;;4968904;28;86852;-85
2021/04/26 10:45:22;;;;;;;37.13;35.13;;;38.20;23.40;;;;;;4962133;28;87082;-85
2021/04/26 10:48:05;;;;;;;40.85;38.85;;;38.70;23.60;;;;;;4959623;28;87285;-86
2021/04/26 10:50:35;;;;;;;44.53;42.40;;;38.50;22.60;;;;;;4967329;28;87198;-87
2021/04/26 10:53:05;;;;;;;46.35;44.25;;;38.20;23.30;;;;;;4964960;28;86833;-87
2021/04/26 10:55:33;;;;;;;95.10;91.05;;;39.00;23.20;;;;;;4967064;28;86898;-85
2021/04/26 10:58:19;;;;;;;109.53;105.03;;;39.80;22.60;;;;;;4966559;28;89109;-85
2021/04/26 11:00:45;;;;;;;210.95;201.75;;;40.10;22.40;;;;;;4949289;28;88255;-84
2021/04/26 11:03:12;;;;;;;77.00;73.55;;;38.80;23.10;;;;;;4960517;28;86803;-85
2021/04/26 11:05:40;;;;;;;80.60;77.15;;;39.40;23.00;;;;;;4967578;28;87519;-87
2021/04/26 11:08:38;;;;;;;212.20;203.15;;;39.50;23.50;;;;;;4972064;28;86930;-86
2021/04/26 11:13:40;;;;;;;104.07;99.65;;;40.50;22.90;;;;;;4960558;28;86892;-86
2021/04/26 11:16:13;;;;;;;51.65;49.33;;;40.70;22.70;;;;;;4968923;28;86349;-85
2021/04/26 11:18:39;;;;;;;36.65;34.85;;;40.70;22.40;;;;;;4962771;28;90387;-86
2021/04/26 11:21:06;;;;;;;28.17;26.63;;;40.30;22.70;;;;;;4948723;28;88969;-86
2021/04/26 11:23:49;;;;;;;30.58;28.92;;;40.40;22.10;;;;;;4975305;28;87994;-85
2021/04/26 11:26:16;;;;;;;30.30;28.73;;;40.90;22.30;;;;;;4966822;28;87073;-85
2021/04/26 11:29:13;;;;;;;42.05;40.05;;;40.30;22.30;;;;;;4967678;28;86934;-84
2021/04/26 11:31:42;;;;;;;44.63;42.42;;;40.80;21.90;;;;;;4971469;28;87448;-86
2021/04/26 11:34:08;;;;;;;40.63;38.35;;;40.70;22.30;;;;;;4971385;28;87188;-86
2021/04/26 11:36:36;;;;;;;39.15;37.15;;;40.20;22.80;;;;;;4971909;28;86992;-85
2021/04/26 11:39:07;;;;;;;35.55;33.60;;;40.10;22.70;;;;;;4966491;28;87465;-86
2021/04/26 11:41:50;;;;;;;38.92;36.97;;;40.80;22.20;;;;;;4962503;28;87318;-87
2021/04/26 11:44:16;;;;;;;40.13;38.10;;;41.10;22.40;;;;;;4961499;28;86613;-87
2021/04/26 11:46:42;;;;;;;62.10;59.15;;;41.10;23.20;;;;;;4970732;28;87286;-85
2021/04/26 11:49:21;;;;;;;64.53;61.67;;;41.20;22.50;;;;;;4970287;28;88252;-86
2021/04/26 11:51:56;;;;;;;46.75;44.45;;;41.50;21.80;;;;;;4962637;28;87174;-86
2021/04/26 11:54:24;;;;;;;31.42;29.70;;;41.10;22.20;;;;;;4968973;28;87015;-87
2021/04/26 11:57:00;;;;;;;61.53;58.80;;;41.20;22.70;;;;;;4980803;28;86951;-87
2021/04/26 11:59:26;;;;;;;49.22;46.83;;;40.60;22.10;;;;;;4980140;28;86958;-86
2021/04/26 12:01:53;;;;;;;55.33;52.50;;;39.80;22.70;;;;;;4976841;28;86932;-86
2021/04/26 12:04:38;;;;;;;34.42;32.63;;;39.00;22.40;;;;;;4971207;28;86957;-85
2021/04/26 12:07:09;;;;;;;29.80;27.98;;;38.20;23.10;;;;;;4970163;28;86257;-85
2021/04/26 12:09:35;;;;;;;28.02;26.52;;;38.10;23.00;;;;;;4970137;28;87449;-85
2021/04/26 12:12:02;;;;;;;30.10;28.50;;;38.30;23.20;;;;;;4970959;28;87238;-86
2021/04/26 12:14:28;;;;;;;27.52;25.90;;;38.30;22.90;;;;;;4989068;28;88105;-86
2021/04/26 12:17:17;;;;;;;29.45;28.00;;;37.90;22.90;;;;;;4961483;28;87109;-84
2021/04/26 12:19:43;;;;;;;31.13;29.23;;;38.10;22.80;;;;;;4984098;28;86962;-83
2021/04/26 12:22:09;;;;;;;26.20;24.85;;;37.80;23.20;;;;;;4975988;28;88116;-84
2021/04/26 12:24:36;;;;;;;25.83;24.48;;;38.50;22.80;;;;;;4972227;28;86918;-86
2021/04/26 12:27:11;;;;;;;23.92;22.42;;;39.00;22.80;;;;;;4969837;28;86890;-86
2021/04/26 12:29:45;;;;;;;37.55;35.65;;;39.50;22.80;;;;;;4982398;28;86616;-86
2021/04/26 12:32:21;;;;;;;58.95;56.15;;;40.00;22.40;;;;;;4978180;28;86314;-88
2021/04/26 12:34:57;;;;;;;48.88;46.28;;;39.90;22.20;;;;;;4975827;28;86534;-87
2021/04/26 12:37:26;;;;;;;53.30;50.83;;;39.40;23.20;;;;;;4967667;28;86957;-87
2021/04/26 12:39:52;;;;;;;47.92;45.42;;;39.30;22.80;;;;;;4972457;28;88269;-87
2021/04/26 12:42:21;;;;;;;42.22;39.97;;;39.30;23.40;;;;;;4968847;28;87277;-87
2021/04/26 12:44:48;;;;;;;;;;;39.20;22.40;;;;;;4968876;28;86692;-87
2021/04/26 12:47:22;;;;;;;39.72;37.72;;;39.20;22.70;;;;;;4969652;28;86942;-87
2021/04/26 12:49:49;;;;;;;53.33;50.88;;;39.10;22.90;;;;;;4965207;28;91669;-87
2021/04/26 12:52:19;;;;;;;36.20;33.92;;;39.10;23.30;;;;;;4969634;28;86731;-86
2021/04/26 12:55:08;;;;;;;38.70;36.75;;;38.50;23.20;;;;;;4962074;28;87408;-87
2021/04/26 12:57:34;;;;;;;38.53;36.63;;;38.70;23.30;;;;;;4970577;28;86221;-87
2021/04/26 13:00:00;;;;;;;20.52;19.38;;;38.50;23.10;;;;;;4969456;28;87080;-86
2021/04/26 13:02:31;;;;;;;21.23;19.92;;;37.90;23.00;;;;;;4972186;28;87176;-87
2021/04/26 13:04:58;;;;;;;28.75;27.00;;;37.60;22.70;;;;;;4972226;28;87748;-86
2021/04/26 13:07:25;;;;;;;37.33;35.45;;;36.80;23.40;;;;;;4970227;28;86601;-87
2021/04/26 13:10:06;;;;;;;46.05;43.78;;;36.60;23.50;;;;;;4952279;28;90960;-87
2021/04/26 13:12:32;;;;;;;44.03;41.85;;;36.50;23.90;;;;;;4956819;28;87080;-86
2021/04/26 13:14:59;;;;;;;47.42;45.22;;;36.70;23.40;;;;;;4970517;28;86816;-86
2021/04/26 13:17:37;;;;;;;47.67;45.38;;;36.30;23.50;;;;;;4969136;28;86984;-87
2021/04/26 13:20:23;;;;;;;78.60;75.10;;;35.60;24.20;;;;;;4969457;28;87519;-86
2021/04/26 13:22:49;;;;;;;61.70;58.60;;;35.20;24.20;;;;;;4960441;28;86994;-87
2021/04/26 13:25:15;;;;;;;57.90;55.10;;;35.40;24.00;;;;;;4970286;28;86809;-86
2021/04/26 13:27:48;;;;;;;26.45;24.75;;;35.50;24.30;;;;;;4968951;28;86985;-86
2021/04/26 13:30:18;;;;;;;25.63;24.08;;;35.80;23.90;;;;;;4951358;28;90294;-86
2021/04/26 13:32:44;;;;;;;30.75;28.98;;;35.90;24.20;;;;;;4967275;28;88693;-86
2021/04/26 13:35:11;;;;;;;55.78;53.15;;;35.90;24.00;;;;;;4969309;28;86901;-87
2021/04/26 13:37:36;;;;;;;59.38;56.70;;;35.70;23.60;;;;;;4968502;28;86987;-85
2021/04/26 13:40:04;;;;;;;34.95;32.97;;;35.60;23.80;;;;;;4973395;28;87690;-85
2021/04/26 13:42:29;;;;;;;29.75;28.00;;;35.60;24.20;;;;;;4960077;28;88625;-85
2021/04/26 13:44:55;;;;;;;51.72;49.28;;;35.50;24.20;;;;;;4976036;28;86831;-87
2021/04/26 13:47:21;;;;;;;25.65;24.17;;;35.10;23.80;;;;;;4978094;28;85916;-86
2021/04/26 13:49:46;;;;;;;27.90;26.30;;;34.80;24.50;;;;;;4969183;28;88186;-86
2021/04/26 13:52:12;;;;;;;33.45;31.85;;;34.60;24.30;;;;;;4969581;28;88174;-85
2021/04/26 13:54:38;;;;;;;31.45;29.75;;;34.60;24.30;;;;;;4968749;28;87961;-87
2021/04/26 13:57:04;;;;;;;39.55;37.63;;;34.60;24.20;;;;;;4976677;28;87183;-86
2021/04/26 13:59:30;;;;;;;42.95;40.70;;;34.70;24.60;;;;;;4969556;28;87716;-87
2021/04/26 14:01:55;;;;;;;43.20;41.08;;;34.30;24.70;;;;;;4968746;28;87006;-86
2021/04/26 14:04:21;;;;;;;38.30;36.30;;;33.80;25.10;;;;;;4964475;28;87015;-86
2021/04/26 14:06:47;;;;;;;57.08;54.58;;;33.30;24.90;;;;;;4953263;28;86967;-85
2021/04/26 14:09:14;;;;;;;62.88;60.03;;;33.10;25.20;;;;;;4975567;28;87647;-86
2021/04/26 14:11:46;;;;;;;77.80;74.10;;;33.10;25.40;;;;;;4969320;28;88418;-84
2021/04/26 14:14:14;;;;;;;81.20;77.60;;;33.10;25.30;;;;;;4975217;28;86900;-86
2021/04/26 14:16:40;;;;;;;75.50;72.13;;;32.90;25.10;;;;;;4966642;28;86940;-86
2021/04/26 14:19:05;;;;;;;69.90;66.63;;;32.70;25.20;;;;;;4965173;28;88494;-87
2021/04/26 14:21:31;;;;;;;90.90;86.80;;;32.70;25.30;;;;;;4978142;28;87979;-85
2021/04/26 14:23:57;;;;;;;80.30;76.65;;;32.20;25.00;;;;;;4950363;28;87305;-86
2021/04/26 14:26:22;;;;;;;141.65;135.65;;;31.90;25.60;;;;;;4969401;28;86646;-86
2021/04/26 14:28:48;;;;;;;180.25;172.65;;;31.60;25.60;;;;;;4950671;28;91890;-86
2021/04/26 14:31:14;;;;;;;207.30;198.70;;;31.40;25.70;;;;;;4968813;28;88125;-85
2021/04/26 14:33:39;;;;;;;150.95;144.57;;;30.90;26.10;;;;;;4951077;28;86730;-87
2021/04/26 14:36:05;;;;;;;76.53;72.82;;;30.30;26.30;;;;;;4968973;28;86212;-87
2021/04/26 14:38:31;;;;;;;49.25;46.55;;;30.20;26.90;;;;;;4968799;28;87121;-86
2021/04/26 14:40:57;;;;;;;48.20;45.88;;;30.10;27.30;;;;;;4969867;28;87072;-87
2021/04/26 14:43:22;;;;;;;41.95;39.75;;;29.70;27.10;;;;;;4961970;28;87995;-87
2021/04/26 14:45:48;;;;;;;53.38;50.83;;;29.30;27.10;;;;;;4968253;28;86987;-88
2021/04/26 14:48:14;;;;;;;67.72;64.10;;;29.10;27.20;;;;;;4976020;28;88206;-84
2021/04/26 14:50:40;;;;;;;71.32;67.72;;;28.90;27.30;;;;;;4968409;28;86874;-86
2021/04/26 14:53:06;;;;;;;69.55;66.32;;;28.70;27.40;;;;;;4953309;28;87052;-85
2021/04/26 14:55:32;;;;;;;66.63;63.58;;;28.40;27.40;;;;;;4963930;28;87053;-86
2021/04/26 14:57:58;;;;;;;69.40;66.15;;;28.30;28.30;;;;;;4964032;28;87656;-87
2021/04/26 15:00:24;;;;;;;108.60;103.85;;;28.00;28.20;;;;;;4945817;28;88415;-84
2021/04/26 15:02:50;;;;;;;99.78;95.43;;;27.70;28.20;;;;;;4960719;28;86694;-87
2021/04/26 15:05:17;;;;;;;103.95;99.60;;;;;;;;;;4970470;28;86913;-85
2021/04/26 15:07:43;;;;;;;102.53;97.97;;;27.40;27.70;;;;;;4963182;28;91695;-87
2021/04/26 15:10:11;;;;;;;59.15;56.25;;;27.20;28.30;;;;;;4969614;28;87246;-86
2021/04/26 15:12:37;;;;;;;55.97;52.83;;;27.20;28.90;;;;;;4972661;28;86958;-87
2021/04/26 15:15:06;;;;;;;65.53;61.97;;;26.90;29.00;;;;;;4972440;28;86915;-82
2021/04/26 15:17:32;;;;;;;50.88;48.20;;;26.70;29.00;;;;;;4974703;28;87956;-85
2021/04/26 15:19:58;;;;;;;41.60;38.67;;;26.60;29.30;;;;;;4956625;28;90412;-84
2021/04/26 15:22:25;;;;;;;35.08;32.88;;;26.30;29.40;;;;;;4976759;28;86859;-87
2021/04/26 15:24:56;;;;;;;31.83;30.02;;;26.10;29.20;;;;;;4981977;28;86237;-81
2021/04/26 15:27:22;;;;;;;65.97;62.70;;;25.90;29.30;;;;;;4985758;28;87722;-86